Date,TemperatureHighF,TemperatureAvgF,TemperatureLowF,DewpointHighF,DewpointAvgF,DewpointLowF,HumidityHigh,HumidityAvg,HumidityLow,PressureMaxIn,PressureMinIn,WindSpeedMaxMPH,WindSpeedAvgMPH,GustSpeedMaxMPH,PrecipitationSumIn
2013-1-1,29,18,11,14,8,3,73,66,52,30.28,30.11,3,0,7,0.00
2013-1-2,37,25,13,25,16,5,73,70,62,30.20,30.04,5,2,8,0.00
2013-1-3,31,27,18,23,17,10,74,67,56,30.38,30.21,7,2,11,0.00
2013-1-4,39,23,15,22,13,9,76,66,49,30.29,30.12,6,1,6,0.00
2013-1-5,35,26,19,24,17,10,77,67,54,30.18,30.00,8,2,16,0.00
2013-1-6,44,26,14,26,16,7,73,66,49,30.30,30.10,4,1,10,0.00
2013-1-7,43,34,26,28,23,18,72,64,53,30.08,29.93,11,2,14,0.00
2013-1-8,44,32,22,30,22,15,79,69,57,30.12,29.84,8,1,12,0.00
2013-1-9,49,34,23,33,24,17,79,69,53,30.40,30.13,1,0,3,0.00
2013-1-10,40,36,31,34,29,23,84,77,63,30.28,29.69,6,1,12,0.12
2013-1-11,52,42,28,43,36,18,88,80,66,29.73,29.38,12,4,22,0.08
2013-1-12,26,19,13,15,7,2,65,58,49,30.12,29.78,15,7,16,0.00
2013-1-13,22,14,9,7,3,0,68,60,49,30.30,30.11,11,3,11,0.00
2013-1-14,33,18,8,13,6,-1,68,59,43,30.43,30.31,6,1,8,0.00
2013-1-15,37,24,14,20,12,5,68,60,49,30.31,30.04,9,1,9,0.00
2013-1-16,53,36,22,32,24,14,71,61,43,30.20,29.93,7,2,12,0.00
2013-1-17,50,35,29,33,26,22,79,70,51,30.43,30.23,4,0,8,0.00
2013-1-18,55,40,31,33,27,23,76,62,43,30.24,29.90,8,2,11,0.00
2013-1-19,54,40,29,30,25,14,72,56,40,30.29,29.88,18,4,18,0.00
2013-1-20,26,21,17,12,7,4,60,55,48,30.37,30.28,6,2,16,0.00
2013-1-21,17,14,12,7,2,-3,66,59,49,30.41,30.31,5,1,11,0.00
2013-1-22,30,19,13,13,7,3,66,59,50,30.35,30.20,0,0,4,0.00
2013-1-23,34,22,15,18,10,3,67,60,49,30.43,30.13,5,0,11,0.00
2013-1-24,22,14,5,5,0,-7,60,53,45,30.48,30.13,0,0,10,0.00
2013-1-25,54,32,17,28,15,4,63,51,33,30.19,30.10,0,0,0,0.00
2013-1-26,61,38,24,30,21,15,71,54,29,30.20,29.97,1,0,12,0.00
2013-1-27,44,40,36,39,33,24,86,78,51,29.94,29.66,6,1,9,0.08
2013-1-28,46,40,34,41,36,30,86,84,84,29.84,29.56,2,0,7,0.00
2013-1-29,39,34,31,36,29,26,87,82,78,29.68,29.58,8,4,14,0.00
2013-1-30,30,22,12,26,14,4,86,73,61,29.92,29.66,13,1,13,0.00
2013-1-31,16,11,3,9,0,-8,74,60,48,30.38,29.93,13,5,21,0.00